| time (UTC) | temp F | wind direction | speed MPH | gust MPH | rain 1hr in | rain 24hr in | rain mn in | humidity % | barometer mb |
| 20260905221556 | 54 | 251 | 0.0 | 2.0 | 0.00 | 0.00 | 0.00 | 94 | 1020.0 |
| 20260905220036 | 53 | 290 | 0.0 | 4.0 | 0.00 | 0.00 | 0.00 | 94 | 1019.8 |
| 20260905214533 | 53 | 320 | 0.0 | 5.0 | 0.00 | 0.00 | 0.00 | 94 | 1019.6 |
| 20260905213040 | 53 | 292 | 0.0 | 4.0 | 0.00 | 0.00 | 0.00 | 94 | 1019.3 |
| 20260905211538 | 53 | 265 | 0.0 | 4.0 | 0.00 | 0.00 | 0.00 | 94 | 1019.0 |
| 20260905210036 | 53 | 279 | 0.0 | 3.0 | 0.00 | 0.00 | 0.00 | 94 | 1018.9 |
| 20260905204530 | 53 | 272 | 0.0 | 3.0 | 0.00 | 0.00 | 0.00 | 93 | 1018.5 |
| 20260905203025 | 53 | 292 | 0.0 | 3.0 | 0.00 | 0.00 | 0.00 | 93 | 1018.2 |
| 20260905201525 | 53 | 271 | 1.0 | 3.0 | 0.00 | 0.00 | 0.00 | 93 | 1018.1 |
| 20260905200022 | 53 | 263 | 0.0 | 4.0 | 0.00 | 0.00 | 0.00 | 93 | 1017.8 |
| 20260905194521 | 53 | 279 | 0.0 | 4.0 | 0.00 | 0.00 | 0.00 | 93 | 1017.8 |
| 20260905193020 | 53 | 271 | 1.0 | 6.0 | 0.00 | 0.00 | 0.00 | 93 | 1017.6 |
| 20260905191519 | 53 | 225 | 1.0 | 8.0 | 0.00 | 0.00 | 0.00 | 93 | 1017.6 |
| 20260905190017 | 53 | 232 | 1.0 | 6.0 | 0.00 | 0.00 | 0.00 | 92 | 1017.3 |
| 20260905184616 | 53 | 225 | 3.0 | 9.0 | 0.00 | 0.00 | 0.00 | 92 | 1017.0 |
| 20260905183014 | 54 | 284 | 3.0 | 10.0 | 0.00 | 0.00 | 0.00 | 92 | 1016.7 |
| 20260905181512 | 54 | 259 | 4.0 | 17.0 | 0.00 | 0.00 | 0.00 | 92 | 1016.5 |
| 20260905180014 | 53 | 267 | 4.0 | 10.0 | 0.00 | 0.00 | 0.00 | 92 | 1016.0 |
| 20260905174508 | 53 | 269 | 3.0 | 8.0 | 0.00 | 0.00 | 0.00 | 92 | 1015.6 |
| 20260905173007 | 53 | 264 | 2.0 | 7.0 | 0.00 | 0.00 | 0.00 | 92 | 1015.4 |
| 20260905171504 | 53 | 272 | 2.0 | 8.0 | 0.00 | 0.00 | 0.00 | 92 | 1015.1 |
| 20260905170002 | 53 | 253 | 2.0 | 9.0 | 0.00 | 0.00 | 0.00 | 92 | 1014.8 |
| 20260905164600 | 53 | 253 | 3.0 | 11.0 | 0.00 | 0.00 | 0.00 | 91 | 1014.6 |
| 20260905163059 | 54 | 281 | 2.0 | 13.0 | 0.00 | 0.00 | 0.00 | 91 | 1014.4 |
| 20260905161603 | 54 | 229 | 5.0 | 11.0 | 0.00 | 0.00 | 0.00 | 91 | 1014.3 |
| 20260905160055 | 54 | 271 | 4.0 | 10.0 | 0.00 | 0.00 | 0.00 | 91 | 1014.2 |
| 20260905154604 | 54 | 290 | 4.0 | 11.0 | 0.00 | 0.00 | 0.00 | 91 | 1013.9 |
| 20260905153052 | 54 | 256 | 3.0 | 8.0 | 0.00 | 0.00 | 0.00 | 91 | 1013.7 |
| 20260905151600 | 53 | 273 | 4.0 | 13.0 | 0.00 | 0.00 | 0.00 | 91 | 1013.3 |
| 20260905150047 | 54 | 278 | 4.0 | 14.0 | 0.00 | 0.00 | 0.00 | 91 | 1012.8 |
| 20260905144545 | 54 | 281 | 3.0 | 10.0 | 0.00 | 0.00 | 0.00 | 91 | 1012.6 |
| 20260905143043 | 54 | 282 | 5.0 | 15.0 | 0.00 | 0.00 | 0.00 | 90 | 1012.2 |
| 20260905141542 | 54 | 310 | 6.0 | 12.0 | 0.00 | 0.00 | 0.00 | 89 | 1012.1 |
| 20260905140038 | 54 | 271 | 6.0 | 16.0 | 0.00 | 0.00 | 0.00 | 88 | 1011.7 |
| 20260905134539 | 54 | 253 | 4.0 | 16.0 | 0.00 | 0.00 | 0.00 | 88 | 1011.4 |
| 20260905133035 | 54 | 287 | 7.0 | 14.0 | 0.00 | 0.00 | 0.00 | 86 | 1011.0 |
| 20260905131533 | 54 | 271 | 7.0 | 16.0 | 0.00 | 0.00 | 0.00 | 85 | 1010.8 |
| 20260905130034 | 54 | 231 | 6.0 | 17.0 | 0.00 | 0.00 | 0.00 | 82 | 1010.8 |
| 20260905124533 | 55 | 300 | 6.0 | 14.0 | 0.00 | 0.00 | 0.00 | 81 | 1010.4 |
| 20260905123032 | 55 | 248 | 9.0 | 17.0 | 0.00 | 0.00 | 0.00 | 79 | 1010.2 |
| 20260905121531 | 55 | 278 | 7.0 | 16.0 | 0.00 | 0.00 | 0.00 | 78 | 1010.0 |
| 20260905120031 | 55 | 276 | 9.0 | 17.0 | 0.00 | 0.00 | 0.00 | 77 | 1009.8 |
| 20260905114533 | 55 | 239 | 9.0 | 15.0 | 0.00 | 0.00 | 0.00 | 77 | 1009.8 |
| 20260905113033 | 55 | 279 | 7.0 | 17.0 | 0.00 | 0.00 | 0.00 | 76 | 1009.4 |
| 20260905111536 | 55 | 311 | 8.0 | 16.0 | 0.00 | 0.00 | 0.00 | 75 | 1009.2 |
| 20260905110031 | 55 | 238 | 7.0 | 16.0 | 0.00 | 0.00 | 0.00 | 75 | 1008.7 |
| 20260905104533 | 55 | 301 | 9.0 | 19.0 | 0.00 | 0.00 | 0.00 | 75 | 1008.7 |
| 20260905103033 | 55 | 251 | 9.0 | 18.0 | 0.00 | 0.00 | 0.00 | 75 | 1008.5 |
| 20260905101533 | 55 | 271 | 7.0 | 18.0 | 0.00 | 0.00 | 0.00 | 75 | 1008.1 |
| 20260905100035 | 55 | 288 | 8.0 | 18.0 | 0.00 | 0.00 | 0.00 | 76 | 1007.7 |
| 20260905094527 | 55 | 288 | 10.0 | 21.0 | 0.00 | 0.00 | 0.00 | 78 | 1007.6 |
| 20260905093028 | 54 | 313 | 5.0 | 14.0 | 0.00 | 0.00 | 0.00 | 81 | 1007.4 |
| 20260905091527 | 54 | 284 | 6.0 | 11.0 | 0.00 | 0.00 | 0.00 | 82 | 1006.9 |
| 20260905090027 | 54 | 267 | 6.0 | 12.0 | 0.00 | 0.00 | 0.00 | 84 | 1006.6 |
| 20260905084526 | 54 | 292 | 5.0 | 11.0 | 0.00 | 0.00 | 0.00 | 85 | 1006.0 |
| 20260905083028 | 54 | 305 | 6.0 | 12.0 | 0.00 | 0.00 | 0.00 | 84 | 1005.9 |
| 20260905081526 | 54 | 263 | 8.0 | 13.0 | 0.00 | 0.00 | 0.00 | 84 | 1005.7 |
| 20260905080032 | 54 | 300 | 8.0 | 20.0 | 0.00 | 0.00 | 0.00 | 83 | 1005.5 |
| 20260905074525 | 54 | 239 | 7.0 | 16.0 | 0.00 | 0.00 | 0.00 | 85 | 1005.1 |
| 20260905073032 | 54 | 244 | 7.0 | 14.0 | 0.00 | 0.00 | 0.00 | 85 | 1005.0 |
| 20260905071522 | 54 | 271 | 10.0 | 19.0 | 0.00 | 0.00 | 0.00 | 83 | 1005.2 |
| 20260905070029 | 56 | 266 | 9.0 | 20.0 | 0.00 | 0.00 | 0.00 | 79 | 1004.8 |
| 20260905064517 | 58 | 229 | 2.0 | 11.0 | 0.00 | 0.00 | 0.00 | 76 | 1003.8 |
| 20260905063017 | 58 | 263 | 5.0 | 14.0 | 0.00 | 0.00 | 0.00 | 77 | 1003.7 |
| 20260905061518 | 58 | 252 | 5.0 | 15.0 | 0.00 | 0.00 | 0.00 | 79 | 1003.7 |
| 20260905060017 | 59 | 236 | 7.0 | 26.0 | 0.00 | 0.00 | 0.00 | 72 | 1003.9 |
| 20260905054533 | 64 | 255 | 5.0 | 14.0 | 0.00 | 0.00 | 0.00 | 55 | 1003.3 |
| 20260905053016 | 65 | 229 | 9.0 | 16.0 | 0.00 | 0.00 | 0.00 | 53 | 1003.1 |
| 20260905051533 | 66 | 264 | 10.0 | 18.0 | 0.00 | 0.00 | 0.00 | 51 | 1003.3 |
| 20260905050014 | 66 | 237 | 10.0 | 19.0 | 0.00 | 0.00 | 0.00 | 50 | 1003.2 |
| 20260905044519 | 66 | 274 | 10.0 | 27.0 | 0.00 | 0.00 | 0.00 | 49 | 1003.2 |
| 20260905043011 | 67 | 225 | 9.0 | 23.0 | 0.00 | 0.00 | 0.00 | 50 | 1002.8 |
| 20260905041510 | 66 | 263 | 14.0 | 24.0 | 0.00 | 0.00 | 0.00 | 53 | 1002.7 |
| 20260905040008 | 66 | 265 | 11.0 | 19.0 | 0.00 | 0.00 | 0.00 | 57 | 1002.8 |
| 20260905034508 | 65 | 244 | 11.0 | 22.0 | 0.00 | 0.00 | 0.00 | 58 | 1002.9 |
| 20260905033016 | 64 | 259 | 10.0 | 25.0 | 0.00 | 0.00 | 0.00 | 59 | 1003.0 |
| 20260905031511 | 63 | 294 | 12.0 | 21.0 | 0.00 | 0.00 | 0.00 | 62 | 1003.2 |
| 20260905030006 | 60 | 267 | 10.0 | 21.0 | 0.00 | 0.00 | 0.00 | 65 | 1003.4 |
| 20260905024506 | 59 | 269 | 13.0 | 27.0 | 0.00 | 0.00 | 0.00 | 63 | 1003.4 |
| 20260905023005 | 62 | 248 | 10.0 | 23.0 | 0.00 | 0.00 | 0.00 | 66 | 1003.4 |
| 20260905021504 | 66 | 272 | 12.0 | 24.0 | 0.00 | 0.00 | 0.00 | 57 | 1002.9 |
| 20260905020005 | 65 | 310 | 10.0 | 24.0 | 0.00 | 0.00 | 0.00 | 57 | 1003.0 |
| 20260905014558 | 65 | 282 | 13.0 | 22.0 | 0.00 | 0.00 | 0.00 | 69 | 1003.4 |
| 20260905013100 | 64 | 5 | 4.0 | 18.0 | 0.00 | 0.00 | 0.00 | 72 | 1003.2 |
| 20260905011556 | 63 | 342 | 11.0 | 20.0 | 0.00 | 0.00 | 0.00 | 74 | 1003.6 |
| 20260905010104 | 63 | 294 | 11.0 | 22.0 | 0.00 | 0.00 | 0.00 | 74 | 1003.5 |
| 20260905004547 | 62 | 319 | 9.0 | 19.0 | 0.00 | 0.00 | 0.00 | 76 | 1003.8 |
| 20260905003046 | 61 | 314 | 9.0 | 19.0 | 0.00 | 0.00 | 0.00 | 76 | 1003.7 |
| 20260905001544 | 61 | 298 | 7.0 | 16.0 | 0.00 | 0.00 | 0.00 | 78 | 1003.7 |
| 20260905000042 | 61 | 311 | 9.0 | 20.0 | 0.00 | 0.00 | 0.00 | 79 | 1003.7 |
| 20260904234548 | 60 | 285 | 7.0 | 21.0 | 0.00 | 0.00 | 0.00 | 82 | 1004.0 |
| 20260904233042 | 59 | 338 | 5.0 | 19.0 | 0.00 | 0.00 | 0.00 | 86 | 1004.0 |
| 20260904231540 | 58 | 301 | 6.0 | 16.0 | 0.00 | 0.00 | 0.00 | 89 | 1004.0 |
| 20260904230040 | 57 | 271 | 7.0 | 15.0 | 0.00 | 0.00 | 0.00 | 91 | 1004.0 |
| 20260904224549 | 57 | 343 | 2.0 | 6.0 | 0.00 | 0.00 | 0.00 | 91 | 1004.1 |
| 20260904223040 | 57 | 16 | 3.0 | 8.0 | 0.00 | 0.00 | 0.00 | 91 | 1004.3 |